Time;durP1;ratioP1;P1;durP2;ratioP2;P2;SDS_P1;SDS_P2;PMS_P1;PMS_P2;Temp;Humidity;BMP_temperature;BMP_pressure;BME280_temperature;BME280_humidity;BME280_pressure;Samples;Min_cycle;Max_cycle;Signal;HPM_P1;HPM_P2
2021/07/14 00:01:34;;;;;;;3.45;1.88;;;16.30;94.40;;;;;;4940628;29;20090;-80
2021/07/14 00:04:00;;;;;;;3.58;1.92;;;16.30;94.50;;;;;;4940804;29;20488;-80
2021/07/14 00:06:25;;;;;;;3.17;2.10;;;16.30;94.50;;;;;;4940387;29;20465;-80
2021/07/14 00:08:51;;;;;;;3.45;2.42;;;16.30;94.50;;;;;;4940429;29;20031;-80
2021/07/14 00:11:16;;;;;;;3.20;1.75;;;16.30;94.50;;;;;;4939993;29;20041;-81
2021/07/14 00:14:13;;;;;;;3.22;1.80;;;16.20;94.40;;;;;;4941150;29;20114;-81
2021/07/14 00:22:11;;;;;;;2.40;1.67;;;16.20;94.40;;;;;;4957600;29;20556;-81
2021/07/14 00:24:37;;;;;;;2.58;1.48;;;16.20;94.40;;;;;;4957534;29;20082;-81
2021/07/14 00:27:06;;;;;;;2.22;1.63;;;16.10;94.40;;;;;;4957557;29;20028;-81
2021/07/14 00:29:35;;;;;;;5.45;1.98;;;16.10;94.70;;;;;;4939148;29;20093;-81
2021/07/14 00:32:01;;;;;;;3.75;1.58;;;16.10;94.60;;;;;;4940245;29;20035;-80
2021/07/14 00:34:27;;;;;;;2.60;1.83;;;16.10;94.40;;;;;;4940114;29;20031;-80
2021/07/14 00:36:52;;;;;;;2.40;1.70;;;16.10;94.40;;;;;;4956932;29;20047;-80
2021/07/14 00:39:18;;;;;;;3.65;1.60;;;16.00;94.50;;;;;;4939373;29;20436;-80
2021/07/14 00:41:43;;;;;;;5.78;1.80;;;16.10;94.50;;;;;;4939544;29;20046;-80
2021/07/14 00:44:09;;;;;;;5.60;1.80;;;16.10;94.50;;;;;;4939014;29;20023;-80
2021/07/14 00:46:35;;;;;;;3.67;1.90;;;16.00;94.40;;;;;;4956698;29;20140;-80
2021/07/14 00:49:01;;;;;;;4.85;1.85;;;16.00;94.40;;;;;;4956362;29;20023;-79
2021/07/14 00:51:30;;;;;;;2.05;1.67;;;16.10;94.50;;;;;;4938806;29;20468;-80
2021/07/14 00:53:57;;;;;;;5.05;1.70;;;16.00;94.50;;;;;;4940054;29;20475;-80
2021/07/14 00:56:28;;;;;;;2.58;1.90;;;16.00;94.60;;;;;;4939291;29;20031;-80
2021/07/14 00:58:55;;;;;;;3.17;1.85;;;15.90;94.60;;;;;;4956216;29;20047;-80
2021/07/14 01:01:21;;;;;;;8.10;2.13;;;15.90;94.70;;;;;;4938179;29;20043;-81
2021/07/14 01:04:11;;;;;;;4.93;1.90;;;15.80;94.70;;;;;;4939212;29;20054;-81
2021/07/14 01:07:03;;;;;;;1.98;1.77;;;15.80;95.00;;;;;;4934886;29;20027;-81
2021/07/14 01:09:39;;;;;;;2.38;1.48;;;15.80;95.00;;;;;;4938860;29;20030;-81
2021/07/14 01:12:19;;;;;;;2.72;1.73;;;15.80;95.00;;;;;;4956637;29;20035;-81
2021/07/14 01:15:10;;;;;;;4.47;2.25;;;15.80;95.00;;;;;;4939877;29;20562;-81
2021/07/14 01:17:46;;;;;;;3.20;1.88;;;15.90;94.90;;;;;;4956462;29;20138;-81
2021/07/14 01:20:36;;;;;;;2.03;1.60;;;16.00;94.70;;;;;;4938871;29;20120;-80
2021/07/14 01:23:11;;;;;;;8.05;2.00;;;16.00;94.50;;;;;;4939266;29;20165;-79
2021/07/14 01:25:42;;;;;;;3.33;1.70;;;16.10;94.40;;;;;;4938645;29;20031;-79
2021/07/14 01:28:08;;;;;;;3.53;1.67;;;16.00;94.30;;;;;;4956270;29;20027;-80
2021/07/14 01:30:35;;;;;;;4.40;1.90;;;16.00;94.30;;;;;;4955744;29;20039;-81
2021/07/14 01:33:02;;;;;;;4.90;2.00;;;16.10;94.40;;;;;;4956783;29;20031;-81
2021/07/14 01:35:32;;;;;;;2.60;1.90;;;16.10;94.20;;;;;;4939248;29;20028;-81
2021/07/14 01:38:00;;;;;;;4.65;1.80;;;16.10;94.10;;;;;;4939462;29;20034;-80
2021/07/14 01:40:27;;;;;;;2.95;1.90;;;16.00;94.10;;;;;;4938565;29;20073;-80
2021/07/14 01:42:56;;;;;;;2.67;1.60;;;16.00;94.20;;;;;;4938841;29;20035;-80
2021/07/14 01:45:27;;;;;;;3.97;1.73;;;15.90;94.40;;;;;;4955548;29;20034;-80
2021/07/14 01:47:54;;;;;;;3.00;1.80;;;16.00;94.30;;;;;;4955855;29;20019;-80
2021/07/14 01:50:20;;;;;;;5.10;1.80;;;15.90;94.30;;;;;;4937755;29;20388;-80
2021/07/14 01:52:46;;;;;;;3.65;1.80;;;16.00;94.30;;;;;;4956409;29;20032;-81
2021/07/14 01:55:13;;;;;;;4.43;2.00;;;16.00;94.10;;;;;;4956103;29;20106;-80
2021/07/14 01:57:40;;;;;;;3.35;1.70;;;16.00;94.10;;;;;;4956380;29;20027;-80
2021/07/14 02:00:07;;;;;;;4.13;1.80;;;16.00;94.10;;;;;;4938088;29;20051;-81
2021/07/14 02:02:36;;;;;;;4.85;2.25;;;16.00;94.20;;;;;;4948200;29;20055;-80
2021/07/14 02:05:04;;;;;;;5.88;2.03;;;16.10;94.20;;;;;;4955856;29;20114;-81
2021/07/14 02:07:32;;;;;;;4.35;2.20;;;16.00;94.30;;;;;;4937733;29;20122;-81
2021/07/14 02:09:57;;;;;;;3.67;2.00;;;16.10;94.40;;;;;;4955381;29;20035;-81
2021/07/14 02:12:32;;;;;;;3.67;1.95;;;16.10;94.40;;;;;;4954315;28;20118;-81
2021/07/14 02:15:04;;;;;;;2.95;1.95;;;16.10;94.40;;;;;;4933366;29;20130;-82
2021/07/14 02:17:59;;;;;;;3.55;2.10;;;16.10;94.30;;;;;;4938361;29;20333;-81
2021/07/14 02:20:25;;;;;;;3.97;2.20;;;16.00;94.40;;;;;;4938028;29;20031;-81
2021/07/14 02:22:51;;;;;;;4.63;2.28;;;16.00;94.50;;;;;;4937527;29;20031;-80
2021/07/14 02:25:18;;;;;;;4.95;2.13;;;16.00;94.50;;;;;;4937758;29;20027;-81
2021/07/14 02:27:44;;;;;;;4.60;2.15;;;16.00;94.40;;;;;;4938222;29;20058;-80
2021/07/14 02:30:18;;;;;;;3.75;2.00;;;16.00;94.40;;;;;;4954603;29;20110;-80
2021/07/14 02:33:05;;;;;;;7.95;2.28;;;15.90;94.50;;;;;;4930792;29;20083;-80
2021/07/14 02:35:34;;;;;;;4.47;2.33;;;15.90;94.60;;;;;;4937334;29;20322;-80
2021/07/14 02:38:06;;;;;;;3.10;2.20;;;15.90;94.60;;;;;;4937838;29;20062;-80
2021/07/14 02:40:45;;;;;;;3.47;2.08;;;15.90;94.70;;;;;;4937292;29;20118;-79
2021/07/14 02:43:11;;;;;;;4.25;2.10;;;15.90;94.60;;;;;;4929032;29;20506;-79
2021/07/14 02:45:43;;;;;;;3.55;2.10;;;15.80;94.50;;;;;;4927371;29;20028;-79
2021/07/14 02:48:11;;;;;;;3.90;1.98;;;15.90;94.50;;;;;;4954538;29;20440;-79
2021/07/14 02:50:37;;;;;;;4.93;1.92;;;15.90;94.50;;;;;;4937612;29;20059;-80
2021/07/14 02:53:12;;;;;;;4.25;2.00;;;15.90;94.30;;;;;;4937668;29;20508;-79
2021/07/14 02:55:41;;;;;;;4.38;2.00;;;16.00;94.20;;;;;;4954587;29;20027;-80
2021/07/14 02:58:08;;;;;;;3.58;2.38;;;16.00;94.10;;;;;;4937362;29;20031;-79
2021/07/14 03:00:40;;;;;;;5.50;2.10;;;15.90;94.10;;;;;;4954352;29;20059;-81
2021/07/14 03:03:08;;;;;;;7.55;2.28;;;15.90;94.20;;;;;;4920899;29;20353;-81
2021/07/14 03:05:35;;;;;;;3.30;2.40;;;15.90;94.10;;;;;;4917837;29;20023;-80
2021/07/14 03:08:05;;;;;;;6.07;2.13;;;15.90;94.10;;;;;;4918876;29;20059;-81
2021/07/14 03:10:32;;;;;;;3.92;2.28;;;15.90;94.20;;;;;;4935285;29;20042;-79
2021/07/14 03:13:02;;;;;;;3.72;1.98;;;15.90;94.10;;;;;;4918484;29;20061;-80
2021/07/14 03:15:30;;;;;;;2.80;2.00;;;15.90;94.10;;;;;;4919170;29;20034;-80
2021/07/14 03:17:57;;;;;;;4.43;2.20;;;15.90;94.00;;;;;;4935704;29;20028;-79
2021/07/14 03:20:23;;;;;;;3.90;2.17;;;15.90;94.00;;;;;;4934236;29;20091;-81
2021/07/14 03:22:51;;;;;;;4.20;1.95;;;15.90;94.00;;;;;;4918317;29;20082;-80
2021/07/14 03:25:19;;;;;;;4.47;2.13;;;15.90;94.10;;;;;;4920339;29;20058;-80
2021/07/14 03:27:50;;;;;;;2.35;1.95;;;15.80;94.10;;;;;;4938916;29;20028;-80
2021/07/14 03:30:17;;;;;;;3.83;1.83;;;15.80;94.10;;;;;;4938697;29;20118;-81
2021/07/14 03:32:43;;;;;;;2.95;2.13;;;15.80;94.20;;;;;;4935791;29;20058;-80
2021/07/14 03:35:09;;;;;;;2.63;2.00;;;15.80;94.20;;;;;;4941742;29;20059;-80
2021/07/14 03:37:36;;;;;;;4.18;1.90;;;15.90;94.10;;;;;;4940478;29;20027;-80
2021/07/14 03:40:07;;;;;;;5.15;1.83;;;15.90;94.10;;;;;;4941159;29;20079;-80
2021/07/14 03:42:34;;;;;;;3.88;1.98;;;15.90;94.10;;;;;;4940370;29;20575;-81
2021/07/14 03:45:01;;;;;;;2.63;2.03;;;15.90;94.10;;;;;;4940631;29;20487;-82
2021/07/14 03:47:27;;;;;;;4.78;1.67;;;15.90;94.10;;;;;;4940484;29;20034;-81
2021/07/14 03:49:55;;;;;;;6.10;2.03;;;15.90;94.10;;;;;;4940828;29;20023;-81
2021/07/14 03:52:22;;;;;;;3.63;2.10;;;15.90;94.10;;;;;;4940754;29;20083;-80
2021/07/14 03:54:49;;;;;;;4.85;2.05;;;15.90;94.10;;;;;;4957721;28;20027;-80
2021/07/14 03:57:16;;;;;;;4.90;2.00;;;15.80;94.20;;;;;;4941102;29;20446;-80
2021/07/14 03:59:41;;;;;;;7.65;2.10;;;15.90;94.20;;;;;;4939909;29;20054;-80
2021/07/14 04:02:10;;;;;;;5.47;2.17;;;15.90;94.30;;;;;;4940174;29;20039;-80
2021/07/14 04:04:36;;;;;;;2.67;1.70;;;15.90;94.40;;;;;;4939995;29;20032;-79
2021/07/14 04:07:13;;;;;;;2.50;1.90;;;15.90;94.50;;;;;;4939982;29;20027;-79
2021/07/14 04:09:44;;;;;;;3.08;2.13;;;16.00;94.40;;;;;;4956436;29;20027;-79
2021/07/14 04:12:09;;;;;;;3.97;2.42;;;16.00;94.40;;;;;;4940129;29;20086;-80
2021/07/14 04:14:35;;;;;;;7.32;4.13;;;16.00;94.40;;;;;;4958019;29;20035;-80
2021/07/14 04:17:01;;;;;;;6.50;2.20;;;15.90;94.40;;;;;;4957966;29;20078;-80
2021/07/14 04:19:27;;;;;;;2.95;2.17;;;15.90;94.40;;;;;;4939634;29;20547;-79
2021/07/14 04:21:53;;;;;;;3.80;2.40;;;16.00;94.40;;;;;;4940262;29;20031;-79
2021/07/14 04:24:19;;;;;;;4.68;2.30;;;16.00;94.40;;;;;;4940376;29;20037;-80
2021/07/14 04:26:45;;;;;;;5.88;2.35;;;16.00;94.30;;;;;;4939503;29;20028;-80
2021/07/14 04:29:11;;;;;;;5.40;2.30;;;16.00;94.30;;;;;;4956966;29;20038;-79
2021/07/14 04:31:37;;;;;;;5.60;2.00;;;16.00;94.40;;;;;;4956753;29;20046;-80
2021/07/14 04:34:03;;;;;;;4.80;2.72;;;16.00;94.30;;;;;;4940441;29;20532;-79
2021/07/14 04:36:30;;;;;;;3.83;2.15;;;16.00;94.20;;;;;;4956398;28;20024;-79
2021/07/14 04:38:57;;;;;;;3.70;2.22;;;16.10;94.20;;;;;;4940055;29;20031;-80
2021/07/14 04:41:23;;;;;;;4.13;2.00;;;16.10;94.20;;;;;;4939699;29;20305;-79
2021/07/14 04:43:49;;;;;;;5.82;2.53;;;16.10;94.20;;;;;;4956507;29;20027;-79
2021/07/14 04:46:15;;;;;;;4.07;2.03;;;16.10;94.00;;;;;;4940175;29;20027;-79
2021/07/14 04:48:40;;;;;;;3.28;2.15;;;16.10;94.00;;;;;;4956067;29;20465;-79
2021/07/14 04:51:06;;;;;;;3.15;2.13;;;16.10;94.00;;;;;;4956916;29;20039;-80
2021/07/14 04:53:32;;;;;;;5.13;2.20;;;16.10;93.90;;;;;;4956861;29;20038;-79
2021/07/14 04:55:59;;;;;;;6.13;2.33;;;16.10;93.80;;;;;;4939896;29;20027;-79
2021/07/14 04:58:25;;;;;;;3.85;1.90;;;16.10;93.80;;;;;;4939070;29;20055;-79
2021/07/14 05:00:50;;;;;;;4.35;2.00;;;16.10;93.80;;;;;;4921287;29;20091;-80
2021/07/14 05:03:16;;;;;;;3.65;1.90;;;16.20;93.80;;;;;;4937242;29;20520;-80
2021/07/14 05:05:42;;;;;;;5.88;1.95;;;16.20;93.70;;;;;;4920293;29;20028;-80
2021/07/14 05:08:07;;;;;;;3.30;2.10;;;16.20;93.60;;;;;;4936659;29;20030;-80
2021/07/14 05:10:33;;;;;;;3.60;2.03;;;16.20;93.60;;;;;;4936548;29;20038;-79
2021/07/14 05:12:59;;;;;;;2.63;2.03;;;16.20;93.60;;;;;;4920144;29;20028;-79
2021/07/14 05:15:25;;;;;;;6.32;1.88;;;16.20;93.50;;;;;;4919857;29;20405;-79
2021/07/14 05:17:51;;;;;;;2.63;1.90;;;16.20;93.60;;;;;;4937527;29;20032;-78
2021/07/14 05:20:17;;;;;;;3.67;2.15;;;16.30;93.50;;;;;;4920061;29;20031;-79
2021/07/14 05:22:44;;;;;;;4.57;2.13;;;16.30;93.40;;;;;;4919792;29;20036;-79
2021/07/14 05:25:10;;;;;;;6.75;2.22;;;16.30;93.40;;;;;;4937530;29;20031;-80
2021/07/14 05:27:35;;;;;;;4.28;1.98;;;16.30;93.30;;;;;;4920201;29;20031;-79
2021/07/14 05:30:04;;;;;;;9.55;2.65;;;16.30;93.40;;;;;;4937296;29;20465;-79
2021/07/14 05:32:29;;;;;;;4.70;1.85;;;16.40;93.30;;;;;;4936719;29;20062;-79
2021/07/14 05:34:55;;;;;;;4.13;2.45;;;16.30;93.30;;;;;;4921007;29;20149;-80
2021/07/14 05:37:20;;;;;;;6.57;2.10;;;16.40;93.50;;;;;;4920681;29;20462;-80
2021/07/14 05:39:46;;;;;;;8.10;2.17;;;16.40;93.50;;;;;;4919868;29;20036;-79
2021/07/14 05:42:12;;;;;;;5.80;2.05;;;16.40;93.40;;;;;;4919889;29;20042;-79
2021/07/14 05:44:38;;;;;;;3.10;2.38;;;16.40;93.30;;;;;;4919278;29;20374;-79
2021/07/14 05:47:03;;;;;;;5.22;2.00;;;16.50;93.20;;;;;;4919145;29;20067;-79
2021/07/14 05:49:29;;;;;;;5.68;2.28;;;16.50;93.20;;;;;;4936103;29;20035;-79
2021/07/14 05:51:55;;;;;;;4.20;1.70;;;16.50;93.20;;;;;;4922860;29;20036;-78
2021/07/14 05:54:20;;;;;;;5.57;1.85;;;16.50;93.20;;;;;;4900826;29;20084;-78
2021/07/14 05:56:46;;;;;;;5.45;2.30;;;16.50;93.20;;;;;;4917257;29;20437;-79
2021/07/14 05:59:12;;;;;;;4.72;2.05;;;16.50;93.20;;;;;;4905626;29;20078;-79
2021/07/14 06:01:37;;;;;;;4.30;2.03;;;16.60;93.10;;;;;;4923740;29;20054;-80
2021/07/14 06:04:04;;;;;;;3.95;1.70;;;16.60;93.00;;;;;;4938888;29;20034;-80
2021/07/14 06:06:30;;;;;;;3.65;1.95;;;16.60;92.80;;;;;;4955294;29;20434;-80
2021/07/14 06:08:55;;;;;;;6.90;2.63;;;16.60;92.70;;;;;;4955022;29;20176;-79
2021/07/14 06:11:21;;;;;;;5.70;2.08;;;16.50;92.70;;;;;;4938447;29;20041;-80
2021/07/14 06:13:47;;;;;;;3.15;1.60;;;16.50;92.80;;;;;;4938228;29;20272;-80
2021/07/14 06:16:13;;;;;;;4.10;1.70;;;16.50;92.70;;;;;;4938836;29;20392;-79
2021/07/14 06:18:39;;;;;;;3.45;1.98;;;16.50;92.90;;;;;;4938036;29;20027;-79
2021/07/14 06:21:05;;;;;;;2.28;1.80;;;16.50;92.90;;;;;;4938328;29;20039;-79
2021/07/14 06:23:32;;;;;;;4.32;1.63;;;16.50;92.70;;;;;;4937905;29;20153;-79
2021/07/14 06:25:59;;;;;;;4.13;1.83;;;16.50;92.60;;;;;;4955447;29;20385;-79
2021/07/14 06:28:24;;;;;;;4.88;1.80;;;16.50;92.60;;;;;;4937962;29;20027;-79
2021/07/14 06:30:50;;;;;;;2.13;1.70;;;16.60;92.40;;;;;;4937472;29;20043;-80
2021/07/14 06:33:16;;;;;;;3.42;1.58;;;16.60;92.30;;;;;;4955243;29;20027;-80
2021/07/14 06:35:42;;;;;;;3.65;2.03;;;16.60;92.30;;;;;;4955081;29;20023;-79
2021/07/14 06:38:08;;;;;;;3.65;1.63;;;16.60;92.30;;;;;;4955551;29;20031;-80
2021/07/14 06:40:37;;;;;;;3.45;1.77;;;16.70;92.30;;;;;;4936967;29;20174;-79
2021/07/14 06:43:05;;;;;;;4.45;1.67;;;16.70;92.30;;;;;;4937523;29;20034;-79
2021/07/14 06:45:31;;;;;;;3.15;2.05;;;16.80;92.20;;;;;;4953755;29;20019;-80
2021/07/14 06:47:57;;;;;;;2.10;1.50;;;16.80;92.10;;;;;;4937974;29;20491;-80
2021/07/14 06:50:23;;;;;;;4.25;1.92;;;16.90;92.00;;;;;;4937991;29;20248;-80
2021/07/14 06:52:48;;;;;;;7.93;2.42;;;16.90;91.90;;;;;;4937571;29;20487;-79
2021/07/14 06:55:14;;;;;;;2.20;1.58;;;16.90;91.80;;;;;;4938585;29;20032;-80
2021/07/14 06:57:41;;;;;;;3.60;1.75;;;16.90;91.70;;;;;;4955075;29;20038;-80
2021/07/14 07:00:09;;;;;;;2.30;1.85;;;16.90;91.70;;;;;;4937552;29;20062;-80
2021/07/14 07:02:35;;;;;;;3.78;1.70;;;17.00;91.70;;;;;;4937159;29;20045;-80
2021/07/14 07:05:01;;;;;;;3.60;1.90;;;16.90;91.60;;;;;;4954924;29;20110;-80
2021/07/14 07:07:26;;;;;;;3.90;1.73;;;17.00;91.70;;;;;;4930958;29;20142;-79
2021/07/14 07:09:52;;;;;;;3.88;2.10;;;17.00;91.80;;;;;;4915010;29;20020;-80
2021/07/14 07:12:19;;;;;;;2.33;1.83;;;17.00;91.80;;;;;;4915408;29;20023;-79
2021/07/14 07:14:45;;;;;;;5.05;1.92;;;17.10;91.80;;;;;;4915405;29;20039;-79
2021/07/14 07:17:11;;;;;;;3.33;2.15;;;17.10;91.70;;;;;;4916192;29;20028;-81
2021/07/14 07:19:36;;;;;;;3.60;1.90;;;17.10;91.70;;;;;;4915017;29;20118;-79
2021/07/14 07:22:03;;;;;;;2.55;1.83;;;17.10;91.60;;;;;;4916361;29;20118;-80
2021/07/14 07:24:29;;;;;;;4.20;2.13;;;17.10;91.70;;;;;;4915340;29;20043;-77
2021/07/14 07:26:55;;;;;;;4.80;1.83;;;17.20;91.80;;;;;;4915964;29;20078;-79
2021/07/14 07:29:21;;;;;;;3.70;2.20;;;17.20;91.70;;;;;;4916401;29;20449;-76
2021/07/14 07:31:47;;;;;;;6.43;2.35;;;17.20;91.70;;;;;;4933780;29;20114;-77
2021/07/14 07:34:15;;;;;;;3.65;1.52;;;17.20;91.70;;;;;;4917890;29;20024;-76
2021/07/14 07:36:41;;;;;;;3.85;1.85;;;17.20;91.70;;;;;;4923746;29;20024;-77
2021/07/14 07:39:07;;;;;;;7.00;1.90;;;17.20;91.60;;;;;;4917126;29;20082;-77
2021/07/14 07:41:33;;;;;;;2.67;1.65;;;17.20;91.70;;;;;;4916598;29;20036;-80
2021/07/14 07:43:59;;;;;;;4.35;2.05;;;17.20;91.80;;;;;;4933919;29;20028;-76
2021/07/14 07:46:25;;;;;;;2.30;1.73;;;17.30;91.70;;;;;;4917788;29;20028;-77
2021/07/14 07:48:51;;;;;;;5.05;1.70;;;17.20;91.60;;;;;;4916789;29;20122;-77
2021/07/14 07:51:16;;;;;;;5.15;1.95;;;17.30;91.60;;;;;;4916808;29;20183;-77
2021/07/14 07:53:42;;;;;;;3.35;2.00;;;17.30;91.60;;;;;;4916859;29;20125;-78
2021/07/14 07:56:08;;;;;;;2.42;1.80;;;17.30;91.60;;;;;;4917574;29;20039;-77
2021/07/14 07:58:35;;;;;;;4.75;1.90;;;17.30;91.70;;;;;;4934463;29;20035;-79
2021/07/14 08:01:01;;;;;;;4.10;2.13;;;17.20;91.60;;;;;;4936178;29;20488;-77
2021/07/14 08:03:27;;;;;;;5.15;1.95;;;17.20;91.60;;;;;;4924721;29;20454;-78
2021/07/14 08:05:52;;;;;;;5.20;1.92;;;17.30;91.70;;;;;;4940049;28;20058;-77
2021/07/14 08:08:18;;;;;;;7.25;1.92;;;17.30;91.60;;;;;;4931370;29;20063;-76
2021/07/14 08:10:44;;;;;;;4.40;2.05;;;17.30;91.50;;;;;;4936542;29;20038;-77
2021/07/14 08:13:10;;;;;;;4.53;1.83;;;17.30;91.50;;;;;;4956177;29;20372;-76
2021/07/14 08:15:36;;;;;;;3.45;2.20;;;17.40;91.50;;;;;;4933889;29;20075;-80
2021/07/14 08:18:03;;;;;;;4.75;2.05;;;17.40;91.50;;;;;;4947385;29;20024;-79
2021/07/14 08:20:29;;;;;;;3.13;1.80;;;17.40;91.40;;;;;;4934036;29;20027;-79
2021/07/14 08:22:56;;;;;;;3.30;1.70;;;17.40;91.50;;;;;;4923541;29;20032;-76
2021/07/14 08:25:23;;;;;;;1.83;1.48;;;17.40;91.50;;;;;;4934732;29;20047;-83
2021/07/14 08:27:48;;;;;;;4.63;2.00;;;17.40;91.40;;;;;;4938944;29;20138;-82
2021/07/14 08:30:15;;;;;;;5.90;2.00;;;17.40;91.50;;;;;;4928581;29;20493;-77
2021/07/14 08:32:41;;;;;;;4.57;1.85;;;17.40;91.60;;;;;;4951280;29;20038;-76
2021/07/14 08:35:08;;;;;;;4.53;1.90;;;17.40;91.80;;;;;;4923686;29;20393;-80
2021/07/14 08:37:34;;;;;;;2.55;1.80;;;17.40;91.50;;;;;;4951459;29;20481;-78
2021/07/14 08:40:00;;;;;;;5.05;2.03;;;17.40;91.70;;;;;;4930076;29;20031;-79
2021/07/14 08:42:26;;;;;;;1.98;1.80;;;17.30;91.60;;;;;;4939272;28;20487;-78
2021/07/14 08:44:53;;;;;;;3.25;1.90;;;17.40;91.80;;;;;;4948930;29;20491;-77
2021/07/14 08:47:20;;;;;;;4.10;2.10;;;17.40;91.90;;;;;;4958670;28;20026;-77
2021/07/14 08:49:48;;;;;;;4.60;2.20;;;17.40;92.00;;;;;;4950203;28;20023;-78
2021/07/14 08:52:18;;;;;;;5.05;1.98;;;17.50;92.00;;;;;;4953253;28;20034;-77
2021/07/14 08:54:45;;;;;;;4.03;2.10;;;17.40;91.90;;;;;;4937608;29;20032;-76
2021/07/14 08:57:12;;;;;;;4.32;2.10;;;17.40;92.10;;;;;;4938521;29;20041;-75
2021/07/14 08:59:38;;;;;;;5.72;2.38;;;17.40;92.20;;;;;;4931400;29;20052;-76
2021/07/14 09:02:04;;;;;;;4.25;2.13;;;17.50;92.30;;;;;;4938128;29;20538;-75
2021/07/14 09:04:30;;;;;;;8.05;2.20;;;17.40;92.20;;;;;;4950571;29;20051;-75
2021/07/14 09:06:56;;;;;;;2.40;2.00;;;17.40;92.20;;;;;;4922191;29;20122;-75
2021/07/14 09:09:22;;;;;;;4.32;2.20;;;17.30;92.30;;;;;;4951176;29;20031;-76
2021/07/14 09:11:49;;;;;;;4.40;2.20;;;17.30;92.70;;;;;;4927159;29;20043;-76
2021/07/14 09:14:35;;;;;;;5.25;2.40;;;17.30;92.60;;;;;;4926824;29;20031;-76
2021/07/14 09:17:22;;;;;;;5.88;2.50;;;17.40;92.90;;;;;;4934931;29;20531;-76
2021/07/14 09:19:51;;;;;;;5.40;2.20;;;17.40;92.80;;;;;;4925727;29;20122;-76
2021/07/14 09:22:27;;;;;;;3.00;2.03;;;17.30;92.90;;;;;;4926357;29;20122;-76
2021/07/14 09:24:57;;;;;;;2.75;2.20;;;17.40;92.90;;;;;;4934167;29;20034;-80
2021/07/14 09:27:31;;;;;;;3.67;2.42;;;17.30;93.00;;;;;;4924134;29;20020;-74
2021/07/14 09:30:15;;;;;;;5.05;2.30;;;17.40;93.20;;;;;;4947221;29;20604;-74
2021/07/14 09:32:47;;;;;;;5.45;2.20;;;17.30;93.30;;;;;;4937356;29;20081;-76
2021/07/14 09:35:26;;;;;;;5.03;2.35;;;17.30;93.30;;;;;;4934166;29;20095;-76
2021/07/14 09:37:52;;;;;;;3.08;2.08;;;17.30;93.40;;;;;;4926988;29;20031;-75
2021/07/14 09:40:19;;;;;;;3.92;2.28;;;17.30;93.40;;;;;;4942835;29;20059;-74
2021/07/14 09:42:55;;;;;;;3.85;2.38;;;17.30;93.50;;;;;;4932534;29;20050;-75
2021/07/14 09:45:52;;;;;;;2.88;2.10;;;17.30;93.50;;;;;;4936694;29;20028;-75
2021/07/14 09:48:19;;;;;;;4.18;2.35;;;17.30;93.60;;;;;;4937157;29;20034;-75
2021/07/14 09:50:54;;;;;;;4.93;2.45;;;17.40;93.60;;;;;;4936465;29;20460;-76
2021/07/14 09:53:21;;;;;;;4.03;2.72;;;17.40;93.70;;;;;;4954408;29;20023;-75
2021/07/14 09:55:49;;;;;;;3.20;2.60;;;17.40;93.80;;;;;;4936280;29;20042;-76
2021/07/14 09:58:26;;;;;;;2.97;2.50;;;17.40;93.90;;;;;;4937143;29;20515;-74
2021/07/14 10:00:54;;;;;;;3.88;2.65;;;17.40;94.10;;;;;;4950883;29;20089;-75
2021/07/14 10:03:23;;;;;;;3.85;2.50;;;17.40;94.30;;;;;;4935712;29;20433;-73
2021/07/14 10:05:50;;;;;;;4.13;2.30;;;17.40;94.30;;;;;;4950878;28;20020;-74
2021/07/14 10:08:20;;;;;;;7.13;2.75;;;17.40;94.30;;;;;;4936895;29;20027;-75
2021/07/14 10:10:49;;;;;;;3.90;2.42;;;17.40;94.20;;;;;;4936141;29;20038;-75
2021/07/14 10:13:18;;;;;;;4.38;2.35;;;17.50;94.30;;;;;;4935083;29;20028;-75
2021/07/14 10:15:44;;;;;;;8.35;2.67;;;17.50;94.30;;;;;;4953834;29;20453;-76
2021/07/14 10:18:12;;;;;;;3.40;2.67;;;17.50;94.10;;;;;;4936527;29;20027;-74
2021/07/14 10:20:40;;;;;;;3.58;2.50;;;17.50;94.10;;;;;;4936288;29;20031;-78
2021/07/14 10:23:07;;;;;;;3.60;2.20;;;17.60;94.20;;;;;;4936458;29;20097;-74
2021/07/14 10:25:35;;;;;;;5.38;2.60;;;17.60;93.90;;;;;;4951483;29;20071;-75
2021/07/14 10:28:03;;;;;;;3.90;2.22;;;17.60;94.00;;;;;;4936224;29;20031;-76
2021/07/14 10:30:29;;;;;;;3.90;2.40;;;17.60;94.10;;;;;;4936091;29;20089;-76
2021/07/14 10:32:57;;;;;;;3.15;2.20;;;17.60;94.10;;;;;;4935623;28;20428;-83
2021/07/14 10:35:31;;;;;;;3.72;2.20;;;17.60;94.20;;;;;;4932779;29;20028;-78
2021/07/14 10:38:01;;;;;;;4.55;2.45;;;17.70;93.90;;;;;;4926983;29;20373;-73
2021/07/14 10:40:27;;;;;;;4.85;2.67;;;17.70;94.10;;;;;;4924084;29;20126;-78
2021/07/14 10:42:53;;;;;;;4.28;2.15;;;17.70;94.00;;;;;;4949650;29;20513;-78
2021/07/14 10:45:20;;;;;;;3.63;2.30;;;17.80;94.00;;;;;;4937769;29;20038;-78
2021/07/14 10:47:47;;;;;;;3.10;2.15;;;17.80;93.90;;;;;;4946707;29;20083;-77
2021/07/14 10:50:14;;;;;;;4.28;2.45;;;17.90;93.90;;;;;;4945846;29;20027;-78
2021/07/14 10:52:41;;;;;;;2.58;2.15;;;18.00;93.90;;;;;;4938867;29;20032;-77
2021/07/14 10:55:09;;;;;;;5.15;2.10;;;18.00;93.60;;;;;;4935282;29;20078;-77
2021/07/14 10:57:36;;;;;;;3.17;1.90;;;18.10;93.40;;;;;;4953919;29;20031;-78
2021/07/14 11:00:06;;;;;;;4.82;2.28;;;18.20;93.50;;;;;;4935937;29;20054;-77
2021/07/14 11:02:43;;;;;;;6.15;2.15;;;18.20;93.60;;;;;;4932946;29;20082;-77
2021/07/14 11:05:10;;;;;;;3.03;2.35;;;18.40;93.40;;;;;;4933833;29;20477;-77
2021/07/14 11:07:42;;;;;;;2.08;1.70;;;18.40;93.40;;;;;;4934938;29;20071;-76
2021/07/14 11:10:28;;;;;;;;;;;18.40;92.60;;;;;;4933829;29;20042;-76
2021/07/14 11:12:56;;;;;;;3.83;1.70;;;18.40;92.20;;;;;;4932231;29;19907;-76
2021/07/14 11:15:29;;;;;;;2.50;2.00;;;18.50;92.30;;;;;;4934649;29;20024;-76
2021/07/14 11:17:55;;;;;;;4.40;2.03;;;18.60;92.10;;;;;;4933067;29;20028;-76
2021/07/14 11:20:21;;;;;;;5.78;1.98;;;18.70;92.20;;;;;;4934996;29;20087;-76
2021/07/14 11:22:49;;;;;;;3.80;1.98;;;18.80;92.30;;;;;;4933902;29;20047;-77
2021/07/14 11:25:20;;;;;;;3.30;1.63;;;18.90;92.30;;;;;;4934647;29;20055;-77
2021/07/14 11:27:52;;;;;;;3.83;1.63;;;18.90;91.60;;;;;;4934118;29;20055;-77
2021/07/14 11:30:26;;;;;;;4.00;2.33;;;19.00;91.70;;;;;;4933400;29;20124;-77
2021/07/14 11:32:56;;;;;;;1.73;1.25;;;19.00;91.50;;;;;;4949153;29;20066;-77
2021/07/14 11:35:26;;;;;;;2.80;1.50;;;19.00;91.10;;;;;;4953603;29;20027;-76
2021/07/14 11:37:51;;;;;;;2.00;1.23;;;19.00;90.90;;;;;;4936359;29;20032;-77
2021/07/14 11:40:20;;;;;;;1.45;1.30;;;19.10;90.70;;;;;;4936729;29;20102;-77
2021/07/14 11:43:10;;;;;;;2.08;1.42;;;19.10;90.40;;;;;;4953344;29;20038;-77
2021/07/14 11:45:39;;;;;;;1.50;1.40;;;19.10;90.00;;;;;;4938067;29;20098;-77
2021/07/14 11:48:15;;;;;;;1.63;1.52;;;19.10;90.20;;;;;;4939812;29;20031;-76
2021/07/14 11:50:46;;;;;;;3.50;1.52;;;19.20;89.00;;;;;;4956732;29;20106;-77
2021/07/14 11:56:13;;;;;;;4.03;2.08;;;19.20;89.90;;;;;;4956159;29;20126;-78
2021/07/14 11:58:47;;;;;;;3.15;1.15;;;19.20;88.90;;;;;;4966377;28;20031;-76
2021/07/14 12:01:20;;;;;;;3.97;1.60;;;19.20;88.80;;;;;;4963224;28;20051;-78
2021/07/14 12:06:46;;;;;;;2.40;1.17;;;19.20;89.20;;;;;;4957091;29;20528;-77
2021/07/14 12:09:14;;;;;;;1.85;1.45;;;19.20;88.70;;;;;;4955951;29;20094;-76
2021/07/14 12:11:43;;;;;;;2.05;1.55;;;19.20;88.80;;;;;;4939385;29;20227;-76
2021/07/14 12:14:14;;;;;;;4.78;1.40;;;19.20;89.40;;;;;;4956187;29;20385;-75
2021/07/14 12:16:44;;;;;;;;;;;19.20;89.90;;;;;;4953715;28;20361;-75
2021/07/14 12:19:09;;;;;;;2.30;1.50;;;19.20;90.00;;;;;;4959232;28;19958;-76
2021/07/14 12:21:37;;;;;;;3.75;1.30;;;19.20;90.30;;;;;;4959258;28;20077;-76
2021/07/14 12:24:04;;;;;;;2.63;1.25;;;19.20;89.70;;;;;;4976442;28;20087;-76
2021/07/14 12:26:29;;;;;;;3.90;1.25;;;19.30;89.50;;;;;;4959049;28;20027;-76
2021/07/14 12:28:56;;;;;;;3.50;1.40;;;19.30;89.30;;;;;;4958158;28;20465;-76
2021/07/14 12:31:22;;;;;;;4.38;1.70;;;19.40;89.80;;;;;;4955442;28;20027;-76
2021/07/14 12:33:55;;;;;;;2.03;1.33;;;19.40;89.60;;;;;;4956548;29;20050;-76
2021/07/14 12:36:21;;;;;;;2.95;1.10;;;19.40;88.60;;;;;;4939516;29;20034;-76
2021/07/14 12:38:57;;;;;;;3.20;1.30;;;19.50;88.60;;;;;;4938713;29;20409;-76
2021/07/14 12:41:24;;;;;;;2.35;1.30;;;19.50;88.20;;;;;;4956042;29;20488;-77
2021/07/14 12:44:03;;;;;;;2.13;1.35;;;19.50;88.50;;;;;;4939352;29;20031;-76
2021/07/14 12:46:29;;;;;;;3.17;1.35;;;19.50;88.50;;;;;;4939077;29;20377;-75
2021/07/14 12:49:16;;;;;;;2.70;1.30;;;19.60;89.00;;;;;;4955068;29;20027;-75
2021/07/14 12:52:10;;;;;;;3.58;1.30;;;19.50;88.80;;;;;;4955674;29;20184;-76
2021/07/14 12:54:37;;;;;;;4.75;1.30;;;19.60;88.70;;;;;;4938804;29;20031;-76
2021/07/14 12:57:07;;;;;;;4.13;1.42;;;19.60;88.60;;;;;;4938443;29;20682;-76
2021/07/14 12:59:33;;;;;;;3.55;1.45;;;19.70;88.80;;;;;;4939439;29;20050;-77
2021/07/14 13:01:59;;;;;;;4.75;1.40;;;19.90;88.40;;;;;;4931428;29;20059;-77
2021/07/14 13:04:25;;;;;;;2.88;1.38;;;19.90;86.70;;;;;;4920662;29;20174;-76
2021/07/14 13:06:52;;;;;;;2.15;1.20;;;20.00;87.20;;;;;;4919540;29;20036;-75